createdAt,value
2019-04-07T00:02:22.380Z,99.90
2019-04-07T00:04:51.117Z,99.90
2019-04-07T00:07:19.848Z,99.90
2019-04-07T00:09:49.110Z,99.90
2019-04-07T00:12:17.808Z,99.90
2019-04-07T00:14:46.674Z,99.90
2019-04-07T00:17:15.462Z,99.90
2019-04-07T00:19:44.687Z,99.90
2019-04-07T00:22:13.566Z,99.90
2019-04-07T00:24:42.234Z,99.90
2019-04-07T00:27:10.848Z,99.90
2019-04-07T00:29:39.541Z,99.90
2019-04-07T00:32:08.562Z,99.90
2019-04-07T00:34:37.353Z,99.90
2019-04-07T00:37:05.961Z,99.90
2019-04-07T00:39:34.629Z,99.90
2019-04-07T00:42:03.829Z,99.90
2019-04-07T00:44:32.809Z,99.90
2019-04-07T00:47:01.546Z,99.90
2019-04-07T00:49:30.209Z,99.90
2019-04-07T00:51:58.817Z,99.90
2019-04-07T00:54:28.034Z,99.90
2019-04-07T00:56:56.810Z,99.90
2019-04-07T00:59:25.499Z,99.90
2019-04-07T01:01:54.591Z,99.90
2019-04-07T01:04:24.265Z,99.90
2019-04-07T01:06:52.950Z,99.90
2019-04-07T01:09:22.248Z,99.90
2019-04-07T01:11:52.271Z,99.90
2019-04-07T01:14:21.440Z,99.90
2019-04-07T01:16:50.709Z,99.90
2019-04-07T01:19:20.007Z,99.90
2019-04-07T01:21:48.852Z,99.90
2019-04-07T01:24:17.685Z,99.90
2019-04-07T01:26:46.299Z,99.90
2019-04-07T01:29:14.963Z,99.90
2019-04-07T01:31:44.227Z,99.90
2019-04-07T01:34:13.466Z,99.90
2019-04-07T01:36:42.893Z,99.90
2019-04-07T01:39:11.947Z,99.90
2019-04-07T01:41:40.835Z,99.90
2019-04-07T01:44:10.125Z,99.90
2019-04-07T01:46:38.852Z,99.90
2019-04-07T01:49:09.846Z,99.90
2019-04-07T01:51:37.935Z,99.90
2019-04-07T01:54:06.541Z,99.90
2019-04-07T01:56:35.200Z,99.90
2019-04-07T01:59:03.874Z,99.90
2019-04-07T02:01:32.717Z,99.90
2019-04-07T02:04:01.732Z,99.90
2019-04-07T02:06:31.124Z,99.90
2019-04-07T02:08:59.851Z,99.90
2019-04-07T02:11:28.760Z,99.90
2019-04-07T02:13:58.161Z,99.90
2019-04-07T02:16:27.048Z,99.90
2019-04-07T02:18:55.813Z,99.90
2019-04-07T02:21:24.993Z,99.90
2019-04-07T02:23:53.838Z,99.90
2019-04-07T02:26:22.427Z,99.90
2019-04-07T02:28:51.137Z,99.90
2019-04-07T02:31:20.972Z,99.90
2019-04-07T02:33:51.096Z,99.90
2019-04-07T02:36:25.945Z,99.90
2019-04-07T02:38:50.266Z,99.90
2019-04-07T02:41:19.818Z,99.90
2019-04-07T02:43:48.786Z,99.90
2019-04-07T02:46:18.267Z,99.90
2019-04-07T02:48:47.137Z,99.90
2019-04-07T02:51:15.791Z,99.90
2019-04-07T02:53:44.453Z,99.90
2019-04-07T02:56:13.384Z,99.90
2019-04-07T02:58:42.302Z,99.90
2019-04-07T03:01:11.526Z,99.90
2019-04-07T03:03:40.597Z,99.90
2019-04-07T03:06:10.051Z,99.90
2019-04-07T03:08:39.636Z,99.90
2019-04-07T03:11:09.554Z,99.90
2019-04-07T03:13:38.362Z,99.90
2019-04-07T03:16:07.609Z,99.90
2019-04-07T03:18:36.417Z,99.90
2019-04-07T03:21:05.141Z,99.90
2019-04-07T03:23:33.795Z,99.90
2019-04-07T03:26:02.416Z,99.90
2019-04-07T03:28:31.127Z,99.90
2019-04-07T03:30:59.871Z,99.90
2019-04-07T03:33:32.517Z,99.90
2019-04-07T03:36:02.659Z,99.90
2019-04-07T03:38:31.500Z,99.90
2019-04-07T03:41:00.345Z,99.90
2019-04-07T03:43:29.118Z,99.90
2019-04-07T03:45:57.783Z,99.90
2019-04-07T03:48:26.499Z,99.90
2019-04-07T03:50:55.287Z,99.90
2019-04-07T03:53:24.354Z,99.90
2019-04-07T03:55:53.509Z,99.90
2019-04-07T03:58:22.737Z,99.90
2019-04-07T04:01:05.232Z,99.90
2019-04-07T04:03:34.336Z,99.90
2019-04-07T04:06:03.008Z,99.90
2019-04-07T04:08:32.738Z,99.90
2019-04-07T04:11:01.732Z,99.90
2019-04-07T04:13:31.297Z,99.90
2019-04-07T04:16:00.834Z,99.90
2019-04-07T04:18:30.783Z,99.90
2019-04-07T04:20:59.738Z,99.90
2019-04-07T04:23:28.563Z,99.90
2019-04-07T04:25:57.183Z,99.90
2019-04-07T04:28:25.788Z,99.90
2019-04-07T04:30:54.440Z,99.90
2019-04-07T04:33:23.478Z,99.90
2019-04-07T04:35:52.353Z,99.90
2019-04-07T04:38:21.091Z,99.90
2019-04-07T04:40:50.597Z,99.90
2019-04-07T04:43:19.792Z,99.90
2019-04-07T04:45:48.550Z,99.90
2019-04-07T04:48:17.441Z,99.90
2019-04-07T04:50:47.138Z,99.90
2019-04-07T04:53:17.042Z,99.90
2019-04-07T04:55:45.844Z,99.90
2019-04-07T04:58:15.285Z,99.90
2019-04-07T05:00:44.587Z,99.90
2019-04-07T05:03:13.835Z,99.90
2019-04-07T05:05:43.170Z,99.90
2019-04-07T05:08:12.760Z,99.90
2019-04-07T05:10:41.706Z,99.90
2019-04-07T05:13:10.370Z,99.90
2019-04-07T05:15:39.092Z,99.90
2019-04-07T05:18:07.792Z,99.90
2019-04-07T05:20:36.450Z,99.90
2019-04-07T05:23:05.238Z,99.90
2019-04-07T05:25:34.097Z,99.90
2019-04-07T05:28:02.776Z,99.90
2019-04-07T05:30:31.487Z,99.90
2019-04-07T05:33:00.905Z,99.90
2019-04-07T05:35:29.822Z,99.90
2019-04-07T05:38:02.683Z,99.90
2019-04-07T05:40:29.401Z,99.90
2019-04-07T05:42:58.740Z,99.90
2019-04-07T05:45:27.979Z,99.90
2019-04-07T05:47:56.739Z,99.90
2019-04-07T05:50:27.491Z,99.90
2019-04-07T05:52:56.425Z,99.90
2019-04-07T05:55:25.159Z,99.90
2019-04-07T05:57:54.221Z,99.90
2019-04-07T06:00:23.483Z,99.90
2019-04-07T06:02:52.803Z,99.90
2019-04-07T06:05:22.139Z,99.90
2019-04-07T06:07:51.609Z,99.90
2019-04-07T06:10:22.887Z,99.90
2019-04-07T06:12:50.598Z,99.90
2019-04-07T06:15:22.002Z,99.90
2019-04-07T06:17:50.100Z,99.90
2019-04-07T06:20:19.283Z,99.90
2019-04-07T06:22:52.736Z,99.90
2019-04-07T06:25:18.714Z,99.90
2019-04-07T06:27:47.754Z,99.90
2019-04-07T06:30:17.512Z,99.90
2019-04-07T06:32:47.273Z,99.90
2019-04-07T06:35:16.034Z,99.90
2019-04-07T06:37:45.385Z,99.90
2019-04-07T06:40:14.224Z,99.90
2019-04-07T06:42:44.746Z,99.90
2019-04-07T06:45:14.008Z,99.90
2019-04-07T06:47:43.306Z,99.90
2019-04-07T06:50:15.470Z,99.90
2019-04-07T06:52:42.828Z,99.90
2019-04-07T06:55:11.599Z,99.90
2019-04-07T06:57:40.269Z,99.90
2019-04-07T07:00:10.174Z,99.90
2019-04-07T07:02:39.061Z,99.90
2019-04-07T07:05:08.459Z,99.90
2019-04-07T07:07:37.937Z,99.90
2019-04-07T07:10:08.270Z,99.90
2019-04-07T07:12:39.153Z,99.90
2019-04-07T07:15:07.932Z,99.90
2019-04-07T07:17:36.579Z,99.90
2019-04-07T07:20:07.154Z,99.90
2019-04-07T07:22:35.773Z,99.90
2019-04-07T07:25:05.384Z,99.90
2019-04-07T07:27:34.048Z,99.90
2019-04-07T07:30:02.980Z,99.90
2019-04-07T07:32:35.039Z,99.90
2019-04-07T07:35:01.969Z,99.90
2019-04-07T07:37:31.110Z,99.90
2019-04-07T07:40:00.971Z,99.90
2019-04-07T07:42:30.502Z,99.90
2019-04-07T07:44:59.226Z,99.90
2019-04-07T07:47:27.885Z,99.90
2019-04-07T07:49:56.507Z,99.90
2019-04-07T07:52:25.506Z,99.90
2019-04-07T07:54:55.112Z,99.90
2019-04-07T07:57:24.914Z,99.90
2019-04-07T07:59:53.797Z,99.90
2019-04-07T08:02:22.460Z,99.90
2019-04-07T08:04:51.151Z,99.90
2019-04-07T08:07:20.331Z,99.90
2019-04-07T08:09:49.177Z,99.90
2019-04-07T08:12:17.967Z,99.90
2019-04-07T08:14:49.747Z,99.90
2019-04-07T08:17:17.291Z,99.90
2019-04-07T08:19:46.640Z,99.90
2019-04-07T08:22:26.441Z,99.90
2019-04-07T08:24:49.629Z,99.90
2019-04-07T08:27:16.331Z,99.90
2019-04-07T08:29:45.216Z,99.90
2019-04-07T08:32:14.042Z,99.90
2019-04-07T08:34:42.661Z,99.90
2019-04-07T08:37:14.421Z,99.90
2019-04-07T08:39:42.103Z,99.90
2019-04-07T08:42:14.054Z,99.90
2019-04-07T08:44:41.909Z,99.90
2019-04-07T08:47:11.981Z,99.90
2019-04-07T08:49:41.644Z,99.90
2019-04-07T08:52:12.352Z,99.90
2019-04-07T08:54:40.789Z,99.90
2019-04-07T08:57:09.622Z,99.90
2019-04-07T08:59:41.881Z,99.90
2019-04-07T09:02:08.709Z,99.90
2019-04-07T09:04:37.317Z,99.30
2019-04-07T09:07:05.975Z,99.70
2019-04-07T09:09:36.988Z,99.30
2019-04-07T09:12:05.962Z,98.20
2019-04-07T09:14:37.261Z,98.50
2019-04-07T09:17:05.086Z,98.50
2019-04-07T09:19:35.756Z,96.60
2019-04-07T09:22:04.120Z,97.70
2019-04-07T09:24:33.508Z,95.30
2019-04-07T09:27:02.401Z,96.30
2019-04-07T09:29:31.354Z,96.70
2019-04-07T09:32:00.290Z,94.70
2019-04-07T09:34:29.138Z,97.50
2019-04-07T09:36:57.864Z,92.10
2019-04-07T09:39:26.950Z,94.30
2019-04-07T09:41:55.640Z,95.70
2019-04-07T09:44:24.355Z,94.50
2019-04-07T09:46:53.124Z,91.40
2019-04-07T09:49:30.975Z,93.50
2019-04-07T09:51:59.941Z,92.10
2019-04-07T09:54:28.742Z,90.20
2019-04-07T09:56:57.386Z,90.30
2019-04-07T09:59:25.997Z,89.60
2019-04-07T10:01:57.053Z,90.70
2019-04-07T10:04:25.631Z,83.40
2019-04-07T10:06:54.550Z,82.50
2019-04-07T10:09:23.167Z,80.90
2019-04-07T10:11:51.944Z,82.10
2019-04-07T10:14:20.684Z,80.10
2019-04-07T10:16:49.548Z,77.50
2019-04-07T10:19:18.372Z,80.00
2019-04-07T10:21:47.530Z,78.20
2019-04-07T10:24:17.016Z,80.00
2019-04-07T10:26:45.785Z,82.90
2019-04-07T10:29:14.497Z,80.40
2019-04-07T10:31:43.164Z,82.80
2019-04-07T10:34:13.275Z,82.90
2019-04-07T10:36:42.499Z,84.10
2019-04-07T10:39:11.935Z,82.40
2019-04-07T10:41:40.715Z,83.80
2019-04-07T10:44:09.631Z,82.00
2019-04-07T10:46:38.463Z,79.50
2019-04-07T10:49:07.120Z,81.60
2019-04-07T10:51:36.459Z,80.30
2019-04-07T10:54:05.779Z,82.20
2019-04-07T10:56:35.271Z,80.30
2019-04-07T10:59:04.366Z,84.90
2019-04-07T11:01:33.394Z,82.00
2019-04-07T11:04:02.226Z,78.10
2019-04-07T11:06:31.719Z,79.10
2019-04-07T11:09:00.992Z,82.10
2019-04-07T11:11:30.381Z,79.30
2019-04-07T11:14:04.684Z,78.30
2019-04-07T11:16:40.694Z,76.90
2019-04-07T11:19:15.797Z,74.10
2019-04-07T11:21:50.419Z,77.20
2019-04-07T11:24:23.950Z,76.30
2019-04-07T11:26:59.416Z,78.00
2019-04-07T11:29:35.406Z,77.00
2019-04-07T11:32:08.715Z,77.50
2019-04-07T11:34:42.800Z,75.40
2019-04-07T11:37:17.832Z,73.80
2019-04-07T11:39:51.379Z,78.40
2019-04-07T11:42:23.081Z,73.00
2019-04-07T11:44:52.017Z,75.00
2019-04-07T11:47:21.106Z,71.80
2019-04-07T11:49:50.607Z,71.50
2019-04-07T11:52:20.028Z,70.80
2019-04-07T11:54:49.220Z,65.50
2019-04-07T11:57:18.010Z,67.40
2019-04-07T11:59:46.843Z,68.10
2019-04-07T12:02:18.655Z,69.40
2019-04-07T12:04:45.880Z,65.60
2019-04-07T12:07:14.555Z,66.40
2019-04-07T12:09:43.325Z,66.10
2019-04-07T12:12:12.638Z,65.90
2019-04-07T12:14:49.441Z,65.70
2019-04-07T12:17:16.741Z,61.30
2019-04-07T12:19:46.299Z,62.50
2019-04-07T12:22:15.318Z,62.50
2019-04-07T12:24:45.486Z,63.40
2019-04-07T12:27:15.074Z,61.20
2019-04-07T12:29:44.558Z,62.20
2019-04-07T12:32:13.339Z,64.50
2019-04-07T12:34:46.429Z,60.10
2019-04-07T12:37:12.505Z,60.00
2019-04-07T12:39:41.730Z,61.90
2019-04-07T12:42:11.239Z,60.20
2019-04-07T12:44:40.102Z,58.80
2019-04-07T12:47:09.177Z,59.00
2019-04-07T12:49:42.190Z,56.90
2019-04-07T12:52:08.571Z,57.00
2019-04-07T12:54:40.575Z,55.40
2019-04-07T12:57:09.347Z,56.10
2019-04-07T12:59:38.978Z,57.10
2019-04-07T13:02:09.135Z,53.30
2019-04-07T13:04:38.019Z,51.80
2019-04-07T13:07:06.790Z,45.80
2019-04-07T13:09:35.461Z,41.80
2019-04-07T13:12:04.311Z,38.30
2019-04-07T13:14:35.277Z,38.30
2019-04-07T13:17:04.142Z,35.30
2019-04-07T13:19:33.202Z,34.20
2019-04-07T13:22:03.010Z,32.90
2019-04-07T13:24:35.631Z,31.60
2019-04-07T13:27:04.087Z,30.90
2019-04-07T13:29:33.475Z,30.00
2019-04-07T13:32:02.172Z,28.70
2019-04-07T13:34:31.158Z,27.90
2019-04-07T13:37:01.210Z,27.40
2019-04-07T13:39:30.357Z,26.70
2019-04-07T13:41:59.168Z,25.90
2019-04-07T13:44:29.435Z,25.30
2019-04-07T13:46:59.089Z,23.80
2019-04-07T13:49:27.984Z,23.60
2019-04-07T13:54:29.567Z,23.40
2019-04-07T13:56:56.408Z,23.80
2019-04-07T13:59:25.016Z,23.70
2019-04-07T14:01:55.289Z,23.90
2019-04-07T14:04:24.228Z,24.60
2019-04-07T14:06:53.387Z,24.50
2019-04-07T14:09:22.307Z,24.80
2019-04-07T14:12:03.131Z,25.50
2019-04-07T14:14:22.204Z,24.70
2019-04-07T14:16:51.702Z,26.20
2019-04-07T14:19:21.089Z,25.50
2019-04-07T14:21:50.547Z,24.70
2019-04-07T14:24:19.806Z,25.30
2019-04-07T14:26:53.129Z,26.00
2019-04-07T14:29:23.108Z,26.30
2019-04-07T14:31:51.934Z,26.50
2019-04-07T14:34:20.729Z,26.20
2019-04-07T14:36:49.990Z,25.80
2019-04-07T14:39:18.811Z,26.20
2019-04-07T14:41:47.522Z,25.70
2019-04-07T14:44:16.129Z,25.80
2019-04-07T14:46:44.874Z,26.30
2019-04-07T14:49:15.959Z,25.80
2019-04-07T14:51:43.942Z,25.60
2019-04-07T14:54:12.594Z,26.10
2019-04-07T14:56:42.112Z,26.50
2019-04-07T14:59:11.630Z,26.10
2019-04-07T15:01:41.096Z,25.70
2019-04-07T15:04:10.787Z,26.00
2019-04-07T15:06:39.546Z,25.80
2019-04-07T15:09:08.296Z,25.70
2019-04-07T15:11:37.852Z,26.00
2019-04-07T15:14:06.583Z,25.70
2019-04-07T15:16:36.676Z,25.60
2019-04-07T15:19:05.519Z,26.30
2019-04-07T15:21:34.324Z,25.50
2019-04-07T15:24:05.885Z,25.30
2019-04-07T15:26:33.654Z,25.40
2019-04-07T15:29:05.711Z,25.20
2019-04-07T15:31:33.116Z,24.50
2019-04-07T15:34:04.205Z,24.10
2019-04-07T15:36:32.129Z,24.10
2019-04-07T15:39:01.237Z,23.80
2019-04-07T15:41:30.637Z,24.30
2019-04-07T15:43:59.359Z,24.30
2019-04-07T15:46:28.971Z,23.80
2019-04-07T15:48:58.632Z,23.20
2019-04-07T15:51:28.355Z,23.50
2019-04-07T15:53:57.052Z,24.50
2019-04-07T15:56:26.037Z,25.30
2019-04-07T15:58:58.215Z,25.40
2019-04-07T16:01:25.112Z,25.50
2019-04-07T16:03:54.857Z,25.60
2019-04-07T16:06:23.552Z,25.80
2019-04-07T16:08:53.138Z,26.60
2019-04-07T16:11:25.642Z,27.30
2019-04-07T16:13:52.261Z,28.10
2019-04-07T16:16:21.097Z,27.30
2019-04-07T16:18:50.573Z,28.40
2019-04-07T16:21:19.566Z,29.30
2019-04-07T16:23:51.882Z,29.20
2019-04-07T16:26:19.605Z,30.50
2019-04-07T16:28:48.552Z,31.00
2019-04-07T16:31:17.270Z,30.50
2019-04-07T16:33:46.570Z,32.10
2019-04-07T16:36:15.388Z,31.10
2019-04-07T16:38:44.345Z,31.70
2019-04-07T16:41:14.167Z,32.70
2019-04-07T16:43:43.690Z,31.40
2019-04-07T16:46:15.593Z,32.00
2019-04-07T16:48:43.107Z,31.90
2019-04-07T16:51:11.932Z,32.50
2019-04-07T16:53:42.053Z,33.00
2019-04-07T16:56:11.309Z,34.30
2019-04-07T16:58:40.237Z,34.00
2019-04-07T17:01:09.111Z,34.50
2019-04-07T17:03:37.923Z,34.20
2019-04-07T17:06:07.324Z,34.00
2019-04-07T17:08:36.146Z,34.60
2019-04-07T17:11:07.661Z,33.90
2019-04-07T17:13:39.991Z,35.20
2019-04-07T17:16:05.946Z,35.10
2019-04-07T17:18:43.041Z,36.30
2019-04-07T17:21:15.618Z,35.40
2019-04-07T17:23:45.638Z,36.10
2019-04-07T17:26:14.688Z,37.10
2019-04-07T17:28:46.076Z,36.70
2019-04-07T17:31:14.493Z,38.00
2019-04-07T17:33:43.938Z,38.50
2019-04-07T17:36:18.350Z,39.10
2019-04-07T17:38:44.297Z,40.20
2019-04-07T17:41:15.548Z,40.60
2019-04-07T17:43:52.015Z,40.70
2019-04-07T17:46:16.653Z,40.50
2019-04-07T17:48:52.811Z,41.30
2019-04-07T17:51:16.643Z,41.20
2019-04-07T17:53:50.606Z,41.50
2019-04-07T17:56:20.254Z,41.00
2019-04-07T17:58:49.018Z,42.00
2019-04-07T18:01:24.681Z,42.60
2019-04-07T18:03:52.692Z,43.20
2019-04-07T18:06:22.179Z,45.90
2019-04-07T18:09:03.398Z,46.10
2019-04-07T18:11:21.293Z,46.60
2019-04-07T18:13:51.498Z,46.50
2019-04-07T18:16:20.275Z,46.80
2019-04-07T18:18:49.816Z,47.50
2019-04-07T18:21:19.315Z,49.00
2019-04-07T18:23:48.409Z,49.00
2019-04-07T18:26:17.060Z,50.20
2019-04-07T18:28:46.446Z,51.00
2019-04-07T18:31:15.353Z,50.40
2019-04-07T18:33:43.941Z,51.70
2019-04-07T18:36:13.050Z,52.80
2019-04-07T18:38:45.061Z,52.80
2019-04-07T18:41:12.490Z,53.90
2019-04-07T18:43:49.840Z,54.50
2019-04-07T18:46:11.851Z,54.60
2019-04-07T18:48:40.625Z,56.40
2019-04-07T18:51:13.285Z,56.80
2019-04-07T18:53:40.522Z,55.50
2019-04-07T18:56:10.411Z,55.20
2019-04-07T18:58:39.755Z,57.30
2019-04-07T19:01:09.371Z,57.40
2019-04-07T19:03:38.907Z,57.50
2019-04-07T19:06:08.703Z,56.90
2019-04-07T19:08:37.652Z,56.40
2019-04-07T19:11:12.485Z,57.40
2019-04-07T19:13:36.646Z,57.70
2019-04-07T19:16:06.185Z,59.40
2019-04-07T19:18:34.967Z,60.10
2019-04-07T19:21:03.691Z,60.00
2019-04-07T19:23:32.700Z,61.70
2019-04-07T19:26:01.484Z,60.40
2019-04-07T19:28:34.202Z,60.30
2019-04-07T19:31:00.533Z,59.70
2019-04-07T19:33:29.399Z,60.70
2019-04-07T19:35:58.145Z,58.60
2019-04-07T19:38:27.362Z,60.00
2019-04-07T19:40:59.316Z,61.60
2019-04-07T19:43:29.309Z,63.00
2019-04-07T19:45:57.069Z,63.60
2019-04-07T19:48:27.229Z,63.80
2019-04-07T19:50:57.681Z,63.50
2019-04-07T19:53:28.938Z,64.90
2019-04-07T19:55:58.155Z,63.90
2019-04-07T19:58:27.034Z,64.00
2019-04-07T20:00:57.116Z,63.40
2019-04-07T20:03:26.386Z,64.00
2019-04-07T20:05:55.022Z,66.10
2019-04-07T20:08:23.681Z,67.20
2019-04-07T20:10:54.455Z,67.20
2019-04-07T20:13:22.689Z,68.40
2019-04-07T20:15:51.346Z,69.00
2019-04-07T20:18:24.451Z,71.60
2019-04-07T20:20:50.653Z,68.20
2019-04-07T20:23:19.991Z,71.10
2019-04-07T20:25:49.263Z,72.50
2019-04-07T20:28:18.031Z,72.50
2019-04-07T20:30:49.546Z,71.10
2019-04-07T20:33:17.066Z,73.80
2019-04-07T20:35:45.740Z,74.20
2019-04-07T20:38:14.827Z,75.80
2019-04-07T20:40:45.503Z,74.60
2019-04-07T20:43:14.363Z,76.00
2019-04-07T20:45:43.101Z,75.50
2019-04-07T20:48:11.826Z,74.80
2019-04-07T20:50:43.635Z,74.10
2019-04-07T20:53:16.725Z,77.70
2019-04-07T20:55:41.386Z,76.90
2019-04-07T20:58:19.449Z,78.00
2019-04-07T21:00:52.857Z,76.40
2019-04-07T21:03:19.508Z,77.60
2019-04-07T21:05:42.045Z,78.70
2019-04-07T21:08:10.772Z,80.70
2019-04-07T21:10:39.435Z,79.90
2019-04-07T21:13:08.747Z,81.30
2019-04-07T21:15:37.424Z,82.20
2019-04-07T21:18:06.082Z,83.90
2019-04-07T21:20:37.228Z,85.20
2019-04-07T21:23:05.134Z,85.20
2019-04-07T21:25:33.914Z,85.00
2019-04-07T21:28:04.271Z,85.10
2019-04-07T21:30:33.578Z,85.50
2019-04-07T21:33:02.430Z,85.10
2019-04-07T21:35:34.736Z,84.80
2019-04-07T21:38:02.496Z,85.60
2019-04-07T21:40:32.041Z,85.80
2019-04-07T21:43:00.933Z,87.00
2019-04-07T21:45:38.305Z,88.30
2019-04-07T21:48:00.545Z,89.10
2019-04-07T21:50:30.277Z,90.00
2019-04-07T21:52:59.241Z,90.10
2019-04-07T21:55:28.760Z,90.40
2019-04-07T21:57:58.494Z,91.40
2019-04-07T22:00:30.873Z,90.90
2019-04-07T22:02:58.266Z,91.60
2019-04-07T22:05:27.123Z,91.10
2019-04-07T22:07:56.005Z,91.70
2019-04-07T22:10:24.727Z,91.90
2019-04-07T22:12:53.408Z,92.40
2019-04-07T22:15:22.606Z,93.00
2019-04-07T22:17:52.081Z,93.40
2019-04-07T22:20:21.636Z,93.50
2019-04-07T22:22:51.255Z,94.00
2019-04-07T22:25:30.459Z,94.10
2019-04-07T22:27:59.408Z,94.30
2019-04-07T22:30:28.135Z,94.90
2019-04-07T22:32:56.852Z,94.90
2019-04-07T22:35:25.548Z,95.70
2019-04-07T22:37:54.717Z,96.00
2019-04-07T22:40:24.084Z,96.20
2019-04-07T22:42:52.747Z,96.20
2019-04-07T22:45:25.267Z,97.00
2019-04-07T22:47:52.660Z,97.20
2019-04-07T22:50:22.061Z,97.50
2019-04-07T22:52:51.002Z,97.60
2019-04-07T22:55:19.646Z,97.70
2019-04-07T22:57:48.426Z,98.50
2019-04-07T23:00:19.042Z,98.30
2019-04-07T23:02:48.595Z,99.30
2019-04-07T23:05:17.447Z,99.00
2019-04-07T23:07:46.182Z,99.50
2019-04-07T23:10:16.121Z,99.50
2019-04-07T23:12:44.847Z,99.50
2019-04-07T23:15:14.744Z,99.80
2019-04-07T23:17:43.391Z,99.90
2019-04-07T23:20:13.067Z,99.90
2019-04-07T23:22:42.418Z,99.90
2019-04-07T23:25:12.299Z,99.90
2019-04-07T23:27:41.598Z,99.90
2019-04-07T23:30:11.336Z,99.90
2019-04-07T23:32:39.951Z,99.90
2019-04-07T23:35:09.031Z,99.90
2019-04-07T23:37:37.751Z,99.90
2019-04-07T23:40:07.058Z,99.90
2019-04-07T23:42:36.135Z,99.90
2019-04-07T23:45:07.088Z,99.90
2019-04-07T23:47:36.621Z,99.90
2019-04-07T23:50:07.556Z,99.90
2019-04-07T23:52:36.193Z,99.90
2019-04-07T23:55:05.009Z,99.90
2019-04-07T23:57:33.831Z,99.90
